Time;durP1;ratioP1;P1;durP2;ratioP2;P2;SDS_P1;SDS_P2;PMS_P1;PMS_P2;Temp;Humidity;BMP_temperature;BMP_pressure;BME280_temperature;BME280_humidity;BME280_pressure;Samples;Min_cycle;Max_cycle;Signal;HPM_P1;HPM_P2
2021/06/25 00:01:28;;;;;;;16.25;12.23;;;16.60;99.90;;;15.32;86.10;101587.09;3519630;39;102446;-40
2021/06/25 00:03:56;;;;;;;20.77;13.15;;;16.60;99.90;;;15.31;86.21;101581.84;3520011;39;102364;-40
2021/06/25 00:06:23;;;;;;;18.40;13.05;;;16.60;99.90;;;15.28;86.27;101580.38;3519466;39;102398;-40
2021/06/25 00:08:51;;;;;;;17.38;11.90;;;16.60;99.90;;;15.25;86.78;101575.34;3519268;39;103207;-39
2021/06/25 00:11:19;;;;;;;16.70;11.93;;;16.60;99.90;;;15.21;85.89;101580.44;3519589;39;102698;-39
2021/06/25 00:13:55;;;;;;;20.13;12.77;;;16.50;99.90;;;15.19;85.83;101585.31;3519534;40;104214;-39
2021/06/25 00:16:23;;;;;;;17.50;12.60;;;16.50;99.90;;;15.17;86.45;101583.88;3519509;39;102763;-40
2021/06/25 00:18:50;;;;;;;17.17;11.73;;;16.50;99.90;;;15.13;86.55;101582.66;3519286;39;102325;-40
2021/06/25 00:21:18;;;;;;;17.65;12.63;;;16.40;99.90;;;15.12;87.03;101584.53;3520231;39;102778;-40
2021/06/25 00:23:45;;;;;;;19.48;12.50;;;16.40;99.90;;;15.09;86.66;101585.81;3518971;39;104084;-40
2021/06/25 00:26:13;;;;;;;16.77;11.70;;;16.40;99.90;;;15.05;86.32;101579.09;3519574;39;102499;-39
2021/06/25 00:28:40;;;;;;;17.92;12.30;;;16.40;99.90;;;15.03;85.88;101578.47;3519833;40;104295;-40
2021/06/25 00:31:08;;;;;;;18.30;12.60;;;16.40;99.90;;;15.01;86.02;101588.84;3519267;39;102230;-45
2021/06/25 00:33:36;;;;;;;;;;;16.40;99.90;;;14.95;86.13;101581.50;3519916;39;102469;-39
2021/06/25 00:36:04;;;;;;;21.17;13.77;;;16.30;99.90;;;14.91;85.40;101583.03;3519698;39;103096;-40
2021/06/25 00:38:39;;;;;;;18.65;13.15;;;16.20;99.90;;;14.86;85.20;101569.13;3519903;39;102205;-40
2021/06/25 00:41:06;;;;;;;19.58;13.30;;;16.20;99.90;;;14.79;85.22;101563.69;3519659;39;102192;-40
2021/06/25 00:43:36;;;;;;;18.58;13.13;;;16.10;99.90;;;14.70;85.23;101568.56;3519138;39;102439;-40
2021/06/25 00:46:04;;;;;;;21.52;12.45;;;16.10;99.90;;;14.60;85.41;101560.81;3519557;39;102437;-40
2021/06/25 00:48:32;;;;;;;20.67;13.23;;;16.00;99.90;;;14.51;85.31;101562.16;3519777;39;103351;-39
2021/06/25 00:51:00;;;;;;;17.23;12.20;;;15.90;99.90;;;14.42;85.45;101569.81;3519367;39;103516;-40
2021/06/25 00:53:29;;;;;;;18.50;12.50;;;15.80;99.90;;;14.32;85.76;101567.53;3519096;39;102289;-41
2021/06/25 00:55:57;;;;;;;16.58;12.23;;;15.70;99.90;;;14.23;85.74;101571.59;3519041;40;102608;-39
2021/06/25 00:58:24;;;;;;;17.75;12.52;;;15.70;99.90;;;14.14;86.03;101562.78;3519425;40;102321;-39
2021/06/25 01:00:52;;;;;;;18.50;12.13;;;15.60;99.90;;;14.06;86.01;101568.53;3519616;40;102123;-39
2021/06/25 01:03:19;;;;;;;17.05;12.82;;;15.50;99.90;;;13.98;85.92;101569.59;3519441;40;105131;-42
2021/06/25 01:05:46;;;;;;;16.90;12.75;;;15.40;99.90;;;13.88;85.98;101561.81;3518917;40;102242;-40
2021/06/25 01:08:15;;;;;;;17.15;12.52;;;15.30;99.90;;;13.80;86.39;101565.66;3519305;40;102281;-39
2021/06/25 01:10:43;;;;;;;18.95;12.32;;;15.20;99.90;;;13.74;86.51;101576.63;3519237;40;103028;-39
2021/06/25 01:13:10;;;;;;;19.02;12.48;;;15.20;99.90;;;13.65;86.07;101559.56;3519092;40;105086;-39
2021/06/25 01:15:38;;;;;;;;;;;15.10;99.90;;;13.61;86.29;101561.91;3519533;40;102680;-40
2021/06/25 01:18:06;;;;;;;17.77;12.13;;;15.00;99.90;;;13.55;86.18;101562.78;3519504;39;102275;-39
2021/06/25 01:20:35;;;;;;;19.13;12.63;;;15.00;99.90;;;13.48;86.45;101550.97;3519118;39;102562;-43
2021/06/25 01:23:04;;;;;;;16.08;12.25;;;14.90;99.90;;;13.38;86.91;101560.44;3519352;40;104242;-39
2021/06/25 01:25:36;;;;;;;18.30;12.50;;;14.80;99.90;;;13.30;86.89;101563.41;3517922;40;102783;-40
2021/06/25 01:28:09;;;;;;;17.02;12.23;;;14.70;99.90;;;13.23;87.04;101565.31;3519053;40;103123;-39
2021/06/25 01:30:44;;;;;;;17.70;12.25;;;14.70;99.90;;;13.18;87.16;101568.69;3518627;39;102367;-40
2021/06/25 01:33:15;;;;;;;16.10;11.90;;;14.60;99.90;;;13.09;87.10;101565.31;3518561;40;103530;-39
2021/06/25 01:35:43;;;;;;;21.45;13.15;;;14.60;99.90;;;13.03;87.49;101559.84;3519846;40;102166;-39
2021/06/25 01:38:13;;;;;;;18.35;12.13;;;14.50;99.90;;;12.95;87.64;101559.00;3520199;39;102305;-40
2021/06/25 01:40:43;;;;;;;17.88;12.60;;;14.40;99.90;;;12.89;87.64;101562.59;3520448;40;104395;-39
2021/06/25 01:43:12;;;;;;;18.45;12.73;;;14.30;99.90;;;12.85;87.69;101553.09;3520359;39;102192;-40
2021/06/25 01:45:41;;;;;;;17.63;12.40;;;14.30;99.90;;;12.80;87.88;101556.47;3519800;39;102302;-41
2021/06/25 01:48:11;;;;;;;18.55;12.98;;;14.30;99.90;;;12.77;87.97;101556.91;3520373;39;103235;-39
2021/06/25 01:50:43;;;;;;;17.73;12.90;;;14.30;99.90;;;12.72;87.88;101553.91;3520294;39;102739;-39
2021/06/25 01:53:17;;;;;;;17.15;12.48;;;14.20;99.90;;;12.65;88.08;101550.34;3520131;39;102555;-40
2021/06/25 01:55:47;;;;;;;17.38;12.40;;;14.10;99.90;;;12.61;88.26;101546.34;3520171;39;103345;-41
2021/06/25 01:58:25;;;;;;;20.70;12.95;;;14.10;99.90;;;12.58;88.02;101542.13;3519866;39;102328;-39
2021/06/25 02:01:10;;;;;;;17.63;12.23;;;14.00;99.90;;;12.54;88.53;101546.31;3520627;39;102184;-39
2021/06/25 02:03:39;;;;;;;19.45;12.45;;;14.00;99.90;;;12.49;88.55;101546.97;3520156;39;103214;-39
2021/06/25 02:06:07;;;;;;;17.50;11.98;;;14.00;99.90;;;12.43;88.69;101538.72;3519932;39;103026;-40
2021/06/25 02:08:38;;;;;;;17.77;12.07;;;13.90;99.90;;;12.36;88.84;101535.97;3519674;39;102483;-40
2021/06/25 02:11:09;;;;;;;19.33;12.57;;;13.80;99.90;;;12.33;88.75;101534.50;3520365;39;104355;-40
2021/06/25 02:13:37;;;;;;;18.98;11.90;;;13.80;99.90;;;12.25;89.14;101531.13;3519803;39;103750;-39
2021/06/25 02:16:04;;;;;;;19.23;12.63;;;13.80;99.90;;;12.23;89.00;101528.56;3520250;39;102202;-40
2021/06/25 02:18:32;;;;;;;19.48;13.32;;;13.70;99.90;;;12.19;89.15;101533.59;3520255;39;103494;-40
2021/06/25 02:21:00;;;;;;;17.77;12.55;;;13.70;99.90;;;12.15;89.19;101536.97;3519921;39;102423;-39
2021/06/25 02:23:27;;;;;;;18.05;12.68;;;13.60;99.90;;;12.04;89.00;101513.81;3519978;39;103351;-40
2021/06/25 02:25:55;;;;;;;18.33;12.93;;;13.60;99.90;;;12.05;89.53;101527.25;3520377;39;102203;-39
2021/06/25 02:28:22;;;;;;;21.50;13.27;;;13.60;99.90;;;12.03;89.21;101528.53;3520033;39;103361;-39
2021/06/25 02:30:54;;;;;;;19.85;12.68;;;13.50;99.90;;;11.98;89.37;101528.28;3520211;40;104158;-39
2021/06/25 02:33:23;;;;;;;18.73;12.20;;;13.50;99.90;;;11.91;89.33;101526.34;3519555;39;102347;-39
2021/06/25 02:35:52;;;;;;;18.33;12.38;;;13.40;99.90;;;11.89;89.23;101530.34;3520378;39;102413;-40
2021/06/25 02:38:20;;;;;;;18.95;12.82;;;13.40;99.90;;;11.83;89.21;101529.25;3520423;39;102314;-39
2021/06/25 02:40:47;;;;;;;17.85;12.18;;;13.30;99.90;;;11.78;89.16;101531.75;3527380;39;103459;-40
2021/06/25 02:43:15;;;;;;;19.05;11.65;;;13.30;99.90;;;11.71;89.00;101531.72;3519948;40;104179;-40
2021/06/25 02:45:42;;;;;;;21.05;12.55;;;13.20;99.90;;;11.69;88.88;101530.25;3519486;39;102286;-39
2021/06/25 02:48:10;;;;;;;18.60;13.43;;;13.20;99.90;;;11.63;89.16;101534.63;3520493;39;105004;-39
2021/06/25 02:50:37;;;;;;;20.20;12.82;;;13.10;99.90;;;11.58;89.28;101534.41;3519831;39;102565;-39
2021/06/25 02:53:08;;;;;;;19.40;12.20;;;13.10;99.90;;;11.49;89.08;101522.78;3519989;40;103799;-39
2021/06/25 02:55:36;;;;;;;20.65;13.00;;;13.00;99.90;;;11.45;89.53;101516.88;3519931;39;103375;-39
2021/06/25 02:58:03;;;;;;;18.33;12.43;;;13.00;99.90;;;11.46;89.36;101529.47;3519738;39;103179;-40
2021/06/25 03:00:31;;;;;;;21.63;12.80;;;13.00;99.90;;;11.42;89.50;101521.91;3518894;40;103422;-39
2021/06/25 03:02:59;;;;;;;21.00;13.65;;;12.90;99.90;;;11.42;89.80;101521.91;3520054;39;102251;-39
2021/06/25 03:05:26;;;;;;;20.75;12.48;;;12.90;99.90;;;11.40;89.58;101533.03;3519973;39;102599;-42
2021/06/25 03:07:54;;;;;;;21.05;12.95;;;12.90;99.90;;;11.33;89.98;101516.59;3519950;39;103670;-39
2021/06/25 03:10:21;;;;;;;16.42;11.07;;;12.80;99.90;;;11.32;89.65;101525.81;3519744;39;102435;-39
2021/06/25 03:12:49;;;;;;;22.35;13.32;;;12.80;99.90;;;11.31;89.91;101526.88;3519631;39;102227;-39
2021/06/25 03:15:16;;;;;;;18.65;12.32;;;12.80;99.90;;;11.28;89.98;101530.00;3519864;39;102588;-39
2021/06/25 03:17:43;;;;;;;22.98;13.52;;;12.80;99.90;;;11.25;90.03;101527.69;3520259;39;103228;-40
2021/06/25 03:20:12;;;;;;;20.92;13.40;;;12.80;99.90;;;11.18;90.09;101527.63;3519959;39;102470;-39
2021/06/25 03:22:40;;;;;;;18.75;12.27;;;12.70;99.90;;;11.16;89.91;101531.63;3520201;39;102160;-40
2021/06/25 03:25:08;;;;;;;19.10;12.40;;;12.70;99.90;;;11.15;90.34;101522.56;3519630;39;102367;-39
2021/06/25 03:27:37;;;;;;;17.38;11.45;;;12.70;99.90;;;11.12;90.11;101527.56;3520084;39;104121;-40
2021/06/25 03:30:08;;;;;;;21.27;13.32;;;12.60;99.90;;;11.11;90.45;101529.47;3519832;39;102427;-39
2021/06/25 03:32:37;;;;;;;18.48;12.05;;;12.60;99.90;;;11.08;90.50;101533.44;3519838;39;103200;-39
2021/06/25 03:35:07;;;;;;;20.48;13.13;;;12.60;99.90;;;11.07;90.90;101529.00;3519337;39;102371;-39
2021/06/25 03:37:36;;;;;;;19.42;12.00;;;12.60;99.90;;;11.06;90.79;101531.97;3519988;39;103273;-39
2021/06/25 03:40:10;;;;;;;18.88;12.57;;;12.60;99.90;;;11.05;90.52;101530.28;3520079;39;102143;-39
2021/06/25 03:42:39;;;;;;;19.92;12.57;;;12.60;99.90;;;11.00;91.06;101521.81;3519733;39;102915;-39
2021/06/25 03:45:10;;;;;;;21.13;12.20;;;12.50;99.90;;;11.02;91.12;101534.22;3519755;39;103385;-40
2021/06/25 03:47:39;;;;;;;19.02;11.20;;;12.50;99.90;;;11.02;91.00;101531.50;3519680;39;102293;-39
2021/06/25 03:50:09;;;;;;;21.52;13.13;;;12.50;99.90;;;11.04;91.13;101536.78;3520261;39;102575;-39
2021/06/25 03:52:37;;;;;;;19.35;11.55;;;12.50;99.90;;;11.04;91.20;101532.16;3520148;39;102357;-41
2021/06/25 03:55:09;;;;;;;19.08;11.95;;;12.50;99.90;;;11.05;91.35;101542.03;3519418;39;102644;-41
2021/06/25 03:57:40;;;;;;;18.00;12.63;;;12.50;99.90;;;11.05;91.42;101539.28;3518987;39;102333;-39
2021/06/25 04:00:13;;;;;;;18.13;11.50;;;12.50;99.90;;;11.07;91.15;101537.22;3519413;39;102732;-39
2021/06/25 04:02:46;;;;;;;17.30;11.63;;;12.50;99.90;;;11.08;91.30;101538.06;3519821;39;102353;-39
2021/06/25 04:05:17;;;;;;;18.60;12.05;;;12.60;99.90;;;11.09;91.28;101537.03;3526641;39;103402;-39
2021/06/25 04:07:45;;;;;;;21.95;12.82;;;12.60;99.90;;;11.13;91.16;101541.03;3519771;39;102299;-40
2021/06/25 04:10:14;;;;;;;20.67;13.38;;;12.60;99.90;;;11.18;91.07;101535.00;3519665;39;102478;-39
2021/06/25 04:12:42;;;;;;;20.58;12.43;;;12.60;99.90;;;11.21;91.51;101531.84;3519696;39;103050;-39
2021/06/25 04:15:10;;;;;;;;;;;12.60;99.90;;;11.23;91.47;101525.13;3520185;39;102453;-37
2021/06/25 04:17:37;;;;;;;18.17;11.65;;;12.70;99.90;;;11.27;91.60;101531.06;3519990;39;102782;-39
2021/06/25 04:20:07;;;;;;;20.45;13.25;;;12.70;99.90;;;11.29;91.25;101534.44;3519777;39;102515;-39
2021/06/25 04:22:34;;;;;;;19.38;12.80;;;12.70;99.90;;;11.33;91.30;101529.41;3520358;39;102241;-39
2021/06/25 04:25:02;;;;;;;18.88;12.63;;;12.70;99.90;;;11.36;91.47;101527.09;3519439;39;102520;-39
2021/06/25 04:27:29;;;;;;;;;;;12.80;99.90;;;11.41;91.71;101531.97;3520334;39;103069;-41
2021/06/25 04:29:57;;;;;;;19.63;12.85;;;12.80;99.90;;;11.45;91.80;101536.00;3519882;39;102375;-40
2021/06/25 04:32:24;;;;;;;19.55;12.63;;;12.90;99.90;;;11.51;91.67;101532.44;3519337;39;102323;-40
2021/06/25 04:34:52;;;;;;;24.20;14.05;;;12.90;99.90;;;11.59;92.04;101531.44;3519737;39;102343;-39
2021/06/25 04:37:19;;;;;;;20.30;12.93;;;12.90;99.90;;;11.65;92.06;101532.53;3519329;39;102226;-40
2021/06/25 04:39:47;;;;;;;21.55;13.95;;;13.00;99.90;;;11.74;92.18;101525.84;3519754;39;102705;-39
2021/06/25 04:42:14;;;;;;;23.45;15.55;;;13.10;99.90;;;11.87;91.79;101533.25;3519287;39;103130;-39
2021/06/25 04:44:42;;;;;;;22.58;14.38;;;13.20;99.90;;;12.02;91.99;101535.88;3519619;40;102368;-39
2021/06/25 04:47:09;;;;;;;22.80;15.88;;;13.40;99.90;;;12.19;91.81;101541.81;3519720;39;103257;-39
2021/06/25 04:49:43;;;;;;;28.55;15.02;;;13.50;99.90;;;12.35;91.54;101529.69;3519119;39;102413;-39
2021/06/25 04:52:10;;;;;;;25.92;15.90;;;13.60;99.90;;;12.60;90.97;101530.97;3519296;39;102418;-38
2021/06/25 04:54:38;;;;;;;26.45;17.35;;;13.80;99.90;;;12.85;90.55;101530.34;3518997;39;102955;-39
2021/06/25 04:57:05;;;;;;;29.05;17.20;;;14.00;99.90;;;13.08;90.02;101536.25;3519126;40;102334;-39
2021/06/25 04:59:33;;;;;;;29.02;16.67;;;14.30;99.90;;;13.30;89.19;101529.69;3519565;39;102816;-39
2021/06/25 05:02:00;;;;;;;27.15;16.95;;;14.50;99.90;;;13.53;87.71;101532.00;3519025;40;102425;-40
2021/06/25 05:04:28;;;;;;;27.35;16.75;;;14.60;99.90;;;13.77;86.70;101535.91;3519057;39;102503;-39
2021/06/25 05:06:56;;;;;;;28.67;16.50;;;14.90;99.90;;;14.01;86.36;101528.00;3519443;39;102390;-39
2021/06/25 05:09:23;;;;;;;24.95;16.38;;;15.10;99.90;;;14.28;86.01;101521.53;3519562;40;102461;-40
2021/06/25 05:11:51;;;;;;;28.00;16.90;;;15.30;99.90;;;14.51;84.62;101520.97;3520884;39;102194;-40
2021/06/25 05:14:18;;;;;;;27.35;16.40;;;15.50;99.90;;;14.67;82.60;101514.91;3519684;39;102625;-39
2021/06/25 05:16:45;;;;;;;25.95;16.58;;;15.70;99.90;;;14.91;82.36;101508.84;3520555;39;102261;-39
2021/06/25 05:19:13;;;;;;;26.00;16.33;;;15.90;99.90;;;15.07;80.54;101515.69;3520324;39;102354;-39
2021/06/25 05:21:40;;;;;;;30.40;16.65;;;16.10;99.90;;;15.21;79.06;101516.41;3520149;39;103168;-40
2021/06/25 05:24:08;;;;;;;26.27;16.92;;;16.20;99.90;;;15.37;78.22;101513.03;3520177;39;102629;-39
2021/06/25 05:26:36;;;;;;;24.90;14.60;;;16.40;99.90;;;15.58;76.66;101507.34;3520260;40;104700;-40
2021/06/25 05:29:03;;;;;;;25.15;15.57;;;16.50;99.90;;;15.81;77.10;101501.97;3520103;39;102545;-39
2021/06/25 05:31:31;;;;;;;23.13;15.43;;;16.80;99.90;;;15.96;74.67;101498.84;3520081;39;102264;-40
2021/06/25 05:33:59;;;;;;;23.42;15.90;;;16.90;99.90;;;16.08;74.11;101496.13;3520434;39;102533;-39
2021/06/25 05:36:26;;;;;;;24.15;16.35;;;17.10;99.90;;;16.24;74.46;101499.28;3520019;39;102352;-40
2021/06/25 05:38:54;;;;;;;25.55;16.63;;;17.20;99.90;;;16.41;72.82;101502.22;3520364;39;102543;-39
2021/06/25 05:41:21;;;;;;;25.52;16.73;;;17.40;99.90;;;16.60;70.74;101502.16;3520244;39;102362;-39
2021/06/25 05:43:49;;;;;;;25.38;16.63;;;17.50;99.90;;;16.57;69.24;101502.63;3520145;39;103126;-40
2021/06/25 05:46:16;;;;;;;23.77;16.30;;;17.60;99.90;;;16.71;71.36;101498.59;3520372;40;103284;-39
2021/06/25 05:48:44;;;;;;;28.27;17.75;;;17.70;99.90;;;16.93;69.79;101500.72;3527114;39;102473;-39
2021/06/25 05:51:12;;;;;;;25.70;16.38;;;17.90;99.90;;;17.13;69.04;101502.34;3520172;39;102965;-40
2021/06/25 05:53:39;;;;;;;26.25;18.00;;;18.00;99.90;;;17.27;69.55;101500.16;3520235;39;102783;-37
2021/06/25 05:56:07;;;;;;;25.92;16.88;;;18.20;99.90;;;17.37;67.55;101509.50;3520022;39;102586;-40
2021/06/25 05:58:35;;;;;;;;;;;18.30;99.90;;;17.44;68.88;101511.28;3521269;39;102415;-39
2021/06/25 06:01:04;;;;;;;30.92;17.90;;;18.40;99.90;;;17.58;66.67;101512.72;3520455;39;103168;-41
2021/06/25 06:03:32;;;;;;;31.98;19.02;;;18.50;99.90;;;17.55;67.51;101507.69;3519837;39;103389;-40
2021/06/25 06:06:01;;;;;;;31.17;19.58;;;18.60;99.90;;;17.40;66.31;101511.78;3519989;39;102253;-40
2021/06/25 06:08:29;;;;;;;28.55;18.17;;;18.50;99.90;;;17.38;68.07;101513.94;3519847;39;102400;-39
2021/06/25 06:10:57;;;;;;;28.15;17.77;;;18.50;99.90;;;17.12;67.21;101518.06;3520242;39;102365;-40
2021/06/25 06:13:24;;;;;;;26.85;17.10;;;18.30;99.90;;;17.20;69.03;101519.59;3520405;39;102519;-40
2021/06/25 06:15:52;;;;;;;26.75;18.40;;;18.30;99.90;;;17.16;68.71;101522.00;3520164;39;103337;-40
2021/06/25 06:18:29;;;;;;;26.88;18.27;;;18.30;99.90;;;17.02;67.95;101523.31;3520154;39;102323;-40
2021/06/25 06:20:56;;;;;;;27.02;17.35;;;18.20;99.90;;;17.08;68.69;101525.09;3519103;39;102332;-40
2021/06/25 06:31:50;;;;;;;28.42;17.85;;;18.50;99.90;;;17.62;68.16;101511.16;3520402;40;103545;-40
2021/06/25 06:34:18;;;;;;;26.38;16.08;;;18.60;99.90;;;17.73;66.31;101528.75;3519602;39;103683;-40
2021/06/25 06:36:46;;;;;;;28.52;16.35;;;18.80;99.90;;;17.91;65.28;101530.50;3520407;39;103282;-40
2021/06/25 06:39:14;;;;;;;24.35;16.55;;;18.90;99.90;;;17.99;64.04;101521.00;3519650;39;102363;-40
2021/06/25 06:41:42;;;;;;;26.45;15.32;;;19.00;99.90;;;17.90;62.21;101519.69;3519451;39;102209;-40
2021/06/25 06:44:10;;;;;;;24.27;15.35;;;18.90;99.90;;;17.99;64.51;101529.28;3652807;22;103376;-37
2021/06/25 06:46:37;;;;;;;23.95;15.32;;;19.00;99.90;;;17.92;62.30;101520.31;3518965;40;103686;-40
2021/06/25 06:49:06;;;;;;;22.40;14.55;;;19.00;99.90;;;17.96;63.08;101521.50;3520002;39;102264;-41
2021/06/25 06:51:34;;;;;;;22.33;14.93;;;19.00;99.90;;;18.04;62.69;101525.84;3520330;40;103301;-40
2021/06/25 06:54:02;;;;;;;22.17;15.45;;;19.00;99.90;;;18.23;63.88;101521.78;3519981;39;102428;-41
2021/06/25 06:56:30;;;;;;;22.05;14.05;;;19.20;99.90;;;18.50;62.36;101526.69;3510166;40;103240;-42
2021/06/25 06:59:01;;;;;;;21.90;14.25;;;19.40;99.90;;;18.53;62.33;101526.16;3510140;40;102632;-40
2021/06/25 07:01:30;;;;;;;20.35;13.43;;;19.40;99.90;;;18.62;60.84;101517.50;3510443;40;102161;-42
2021/06/25 07:04:18;;;;;;;20.58;12.73;;;19.50;99.90;;;18.52;58.28;101513.44;3510517;40;102599;-41
2021/06/25 07:06:45;;;;;;;20.17;13.05;;;19.60;99.90;;;18.50;58.03;101515.63;3510139;40;103086;-41
2021/06/25 07:09:12;;;;;;;19.92;12.95;;;19.60;99.90;;;18.42;59.83;101518.81;3509940;40;102411;-43
2021/06/25 07:11:40;;;;;;;23.10;13.25;;;19.50;99.90;;;18.41;59.74;101519.88;3510660;40;103290;-41
2021/06/25 07:14:07;;;;;;;16.83;11.65;;;19.50;99.90;;;18.43;57.59;101525.16;3510106;40;102180;-41
2021/06/25 07:16:35;;;;;;;16.38;11.13;;;19.50;99.90;;;18.57;59.08;101534.00;3510136;40;102357;-43
2021/06/25 07:19:03;;;;;;;16.75;10.73;;;19.50;99.90;;;18.74;58.38;101523.78;3510166;40;102269;-41
2021/06/25 07:21:30;;;;;;;18.40;10.90;;;19.60;99.90;;;18.97;57.81;101533.84;3509944;40;103054;-41
2021/06/25 07:24:01;;;;;;;17.13;11.57;;;19.80;99.90;;;19.12;57.63;101526.88;3510217;40;103390;-39
2021/06/25 07:26:29;;;;;;;16.08;11.65;;;20.00;99.90;;;19.17;58.87;101524.19;3510183;40;102158;-41
2021/06/25 07:28:56;;;;;;;16.90;11.10;;;20.10;99.90;;;19.22;56.21;101523.44;3510075;40;102313;-41
2021/06/25 07:31:24;;;;;;;16.20;11.50;;;20.10;99.90;;;19.26;56.89;101525.44;3509775;40;102299;-41
2021/06/25 07:33:51;;;;;;;;;;;20.20;99.90;;;19.43;58.13;101524.56;3510654;40;102247;-41
2021/06/25 07:36:20;;;;;;;17.92;11.30;;;20.30;99.90;;;19.55;57.06;101513.38;3510094;40;102384;-40
2021/06/25 07:38:49;;;;;;;15.38;10.75;;;20.40;99.90;;;19.64;56.08;101517.38;3510160;40;102309;-41
2021/06/25 07:41:16;;;;;;;14.82;10.02;;;20.50;99.90;;;19.70;55.83;101523.81;3509249;40;102383;-41
2021/06/25 07:43:44;;;;;;;15.73;10.57;;;20.60;99.90;;;19.69;57.00;101511.91;3510436;40;102405;-41
2021/06/25 07:46:11;;;;;;;15.60;10.85;;;20.60;99.90;;;19.71;54.83;101519.94;3510073;40;102339;-41
2021/06/25 07:48:39;;;;;;;15.40;10.60;;;20.60;99.90;;;20.01;56.01;101524.19;3510179;40;102452;-41
2021/06/25 07:51:07;;;;;;;16.02;10.30;;;20.80;99.90;;;20.15;53.29;101530.19;3509924;40;102395;-41
2021/06/25 07:53:34;;;;;;;16.08;10.20;;;20.90;99.90;;;20.25;57.56;101535.84;3509896;40;102422;-41
2021/06/25 07:56:02;;;;;;;17.05;10.85;;;21.00;99.90;;;20.44;55.51;101527.16;3510103;40;104325;-40
2021/06/25 07:58:29;;;;;;;15.68;10.23;;;21.20;99.90;;;20.65;53.38;101524.56;3510469;40;102418;-41
2021/06/25 08:00:57;;;;;;;14.45;9.85;;;21.30;99.90;;;20.60;51.29;101524.53;3510186;40;102359;-41
2021/06/25 08:03:25;;;;;;;16.55;10.90;;;21.40;99.90;;;20.48;50.69;101531.09;3509983;40;102229;-43
2021/06/25 08:05:55;;;;;;;;;;;21.50;99.90;;;20.68;50.53;101518.50;3510443;40;102325;-41
2021/06/25 08:08:23;;;;;;;17.15;11.10;;;21.50;99.90;;;20.80;51.06;101527.50;3509782;40;102205;-41
2021/06/25 08:10:50;;;;;;;17.85;12.38;;;21.60;99.90;;;21.05;52.95;101520.50;3510612;40;103297;-41
2021/06/25 08:13:18;;;;;;;;;;;21.80;99.90;;;21.24;51.31;101511.75;3511026;40;102441;-41
2021/06/25 08:15:51;;;;;;;16.02;10.48;;;22.00;99.90;;;21.51;49.94;101514.38;3510206;40;103863;-42
2021/06/25 08:18:22;;;;;;;15.13;10.52;;;22.20;99.90;;;21.77;50.27;101517.28;3510171;40;103384;-42
2021/06/25 08:20:50;;;;;;;16.63;10.65;;;22.40;99.90;;;21.74;50.62;101515.06;3510596;40;102130;-40
2021/06/25 08:23:19;;;;;;;15.70;12.07;;;22.40;99.90;;;21.56;47.52;101511.63;3509720;40;103446;-41
2021/06/25 08:25:47;;;;;;;14.82;10.90;;;22.40;99.00;;;21.58;47.96;101510.50;3509529;40;102541;-38
2021/06/25 08:28:14;;;;;;;17.17;10.80;;;22.50;99.60;;;21.72;50.01;101502.53;3510414;40;102471;-41
2021/06/25 08:30:42;;;;;;;16.60;10.77;;;22.50;99.90;;;21.88;51.83;101498.72;3509984;40;103544;-42
2021/06/25 08:33:10;;;;;;;17.38;11.38;;;22.60;99.90;;;22.12;52.87;101492.69;3509689;40;102652;-41
2021/06/25 08:35:38;;;;;;;14.38;10.90;;;22.80;99.90;;;22.04;49.63;101496.00;3508834;40;103235;-41
2021/06/25 08:38:05;;;;;;;20.05;11.15;;;22.80;99.90;;;22.11;49.79;101496.56;3509868;40;102409;-41
2021/06/25 08:40:33;;;;;;;15.23;10.43;;;22.90;99.90;;;21.91;48.87;101494.59;3509470;40;103241;-39
2021/06/25 08:43:01;;;;;;;16.05;10.90;;;22.90;99.90;;;21.90;48.75;101495.69;3509877;40;102500;-41
2021/06/25 08:45:30;;;;;;;15.77;10.38;;;22.80;99.50;;;22.09;50.33;101498.78;3509189;40;102293;-41
2021/06/25 08:47:59;;;;;;;14.20;9.60;;;22.90;99.90;;;22.15;47.66;101500.47;3510314;40;102151;-41
2021/06/25 08:50:28;;;;;;;17.23;10.05;;;22.90;99.00;;;22.31;51.74;101492.16;3510017;40;103184;-41
2021/06/25 08:52:56;;;;;;;15.85;9.73;;;23.00;99.90;;;22.19;49.40;101509.09;3510162;40;103413;-41
2021/06/25 08:55:23;;;;;;;14.60;10.88;;;23.00;99.90;;;22.04;49.02;101499.59;3509869;40;102182;-41
2021/06/25 08:57:50;;;;;;;17.60;10.90;;;23.00;99.40;;;22.04;50.38;101502.38;3509528;40;102414;-41
2021/06/25 09:00:19;;;;;;;14.80;9.48;;;23.00;99.90;;;22.06;51.45;101496.56;3510233;40;102858;-41
2021/06/25 09:02:47;;;;;;;12.48;8.93;;;23.00;99.90;;;21.98;48.54;101493.19;3509889;40;102083;-41
2021/06/25 09:05:20;;;;;;;;;;;22.90;99.20;;;22.17;50.55;101495.47;3508978;40;102359;-41
2021/06/25 09:07:50;;;;;;;11.95;8.80;;;23.00;99.90;;;21.95;46.92;101490.97;3509598;40;102643;-41
2021/06/25 09:10:35;;;;;;;14.23;9.07;;;22.90;97.90;;;22.17;49.40;101491.88;3509798;40;102344;-40
2021/06/25 09:13:14;;;;;;;14.68;9.05;;;23.00;99.90;;;22.18;44.14;101487.97;3508721;40;102685;-41
2021/06/25 09:15:43;;;;;;;;;;;23.00;95.80;;;22.21;47.18;101490.19;3510027;40;102225;-41
2021/06/25 09:18:13;;;;;;;14.20;8.02;;;23.00;98.30;;;22.15;46.65;101483.78;3509866;40;102382;-44
2021/06/25 09:20:46;;;;;;;11.80;8.80;;;23.00;97.20;;;22.03;48.02;101483.22;3510002;40;104405;-40
2021/06/25 09:23:39;;;;;;;13.07;8.27;;;22.90;97.80;;;22.01;46.83;101480.72;3509397;40;103378;-41
2021/06/25 09:26:31;;;;;;;12.88;8.27;;;22.90;98.20;;;21.82;47.08;101483.16;3509292;40;102148;-41
2021/06/25 09:29:23;;;;;;;11.18;7.00;;;22.80;97.40;;;21.69;45.84;101479.78;3509404;40;102742;-41
2021/06/25 09:32:07;;;;;;;11.90;7.78;;;22.70;95.60;;;21.56;44.71;101480.25;3509873;40;102310;-41
2021/06/25 09:34:47;;;;;;;10.95;7.38;;;22.70;94.50;;;21.62;48.08;101473.63;3509044;40;102175;-42
2021/06/25 09:37:18;;;;;;;10.82;7.47;;;22.60;97.70;;;21.62;45.30;101479.16;3509296;40;102298;-40
2021/06/25 09:40:00;;;;;;;10.88;7.40;;;22.60;95.40;;;21.58;46.37;101469.72;3509608;40;102372;-41
2021/06/25 09:42:28;;;;;;;9.90;7.57;;;22.60;95.70;;;21.65;45.12;101486.16;3509354;40;104165;-41
2021/06/25 09:45:12;;;;;;;10.60;7.47;;;22.60;94.80;;;21.47;44.50;101473.53;3509396;40;102339;-41
2021/06/25 09:47:51;;;;;;;10.13;6.90;;;22.50;93.70;;;21.74;47.63;101470.63;3509203;40;102323;-43
2021/06/25 09:50:33;;;;;;;12.27;7.60;;;22.60;97.20;;;21.67;45.96;101465.31;3509632;40;102551;-41
2021/06/25 09:53:06;;;;;;;11.52;7.88;;;22.60;95.00;;;21.83;48.55;101468.16;3509537;40;103100;-40
2021/06/25 09:56:16;;;;;;;11.32;8.40;;;22.60;97.80;;;21.74;45.26;101467.84;3510029;40;102428;-42
2021/06/25 09:58:42;;;;;;;11.05;7.47;;;22.60;94.70;;;21.64;44.93;101465.03;3509753;40;102331;-41
2021/06/25 10:01:23;;;;;;;11.27;8.07;;;22.70;94.10;;;21.52;46.80;101462.47;3510609;40;102216;-41
2021/06/25 10:04:00;;;;;;;14.63;7.68;;;22.60;95.70;;;21.66;44.75;101468.41;3510457;40;102141;-41
2021/06/25 10:06:34;;;;;;;11.77;7.70;;;22.60;94.20;;;21.70;48.51;101459.22;3510526;40;102114;-39
2021/06/25 10:09:04;;;;;;;13.73;8.15;;;22.60;97.00;;;21.67;44.91;101461.72;3510955;40;102459;-41
2021/06/25 10:11:33;;;;;;;11.65;7.85;;;22.60;94.10;;;22.11;45.11;101458.50;3510706;40;102423;-41
2021/06/25 10:14:04;;;;;;;13.93;7.80;;;22.90;95.10;;;22.40;45.48;101452.41;3510750;40;104186;-43
2021/06/25 10:16:32;;;;;;;10.55;7.22;;;23.10;95.70;;;22.72;46.86;101450.47;3510806;40;102594;-41